createdAt,value
2022-08-27T00:05:22.964Z,7.90
2022-08-27T00:20:28.386Z,10.43
2022-08-27T00:35:30.923Z,10.07
2022-08-27T00:50:37.888Z,17.27
2022-08-27T01:05:40.235Z,17.52
2022-08-27T01:20:51.835Z,34.67
2022-08-27T01:35:54.517Z,42.55
2022-08-27T01:50:56.778Z,52.53
2022-08-27T02:06:00.441Z,52.40
2022-08-27T02:21:02.736Z,53.88
2022-08-27T02:36:05.021Z,49.80
2022-08-27T02:51:08.555Z,53.58
2022-08-27T03:06:10.793Z,55.85
2022-08-27T03:21:18.531Z,57.90
2022-08-27T03:36:20.770Z,57.58
2022-08-27T03:51:23.827Z,59.05
2022-08-27T04:06:26.096Z,62.65
2022-08-27T04:21:28.347Z,79.63
2022-08-27T04:36:30.919Z,76.68
2022-08-27T04:51:33.811Z,79.88
2022-08-27T05:06:36.879Z,83.50
2022-08-27T05:21:45.300Z,100.03
2022-08-27T05:36:49.088Z,72.88
2022-08-27T05:51:54.022Z,77.85
2022-08-27T06:06:56.439Z,66.63
2022-08-27T06:22:00.065Z,72.85
2022-08-27T06:37:03.657Z,95.90
2022-08-27T06:52:08.250Z,67.43
2022-08-27T07:07:12.202Z,68.45
2022-08-27T07:22:14.466Z,68.85
2022-08-27T07:37:16.708Z,53.38
2022-08-27T07:52:20.267Z,56.17
2022-08-27T08:07:25.095Z,60.15
2022-08-27T08:22:27.415Z,39.65
2022-08-27T08:37:29.860Z,41.05
2022-08-27T08:52:35.148Z,37.47
2022-08-27T09:08:30.958Z,29.77
2022-08-27T09:23:40.530Z,20.87
2022-08-27T09:38:58.639Z,19.13
2022-08-27T09:54:02.127Z,16.85
2022-08-27T10:09:16.610Z,16.73
2022-08-27T10:24:40.105Z,14.25
2022-08-27T10:39:51.254Z,13.45
2022-08-27T10:54:55.694Z,12.68
2022-08-27T11:10:21.403Z,14.20
2022-08-27T11:25:39.676Z,11.20
2022-08-27T11:41:07.202Z,9.38
2022-08-27T11:56:20.810Z,9.85
2022-08-27T12:11:35.078Z,10.60
2022-08-27T12:26:39.205Z,13.70
2022-08-27T12:41:45.348Z,11.90
2022-08-27T12:57:00.693Z,12.32
2022-08-27T13:12:04.347Z,12.77
2022-08-27T13:27:06.685Z,11.65
2022-08-27T13:42:08.952Z,12.27
2022-08-27T13:57:13.470Z,12.63
2022-08-27T14:12:32.491Z,14.73
2022-08-27T14:27:36.217Z,19.53
2022-08-27T14:42:39.624Z,15.02
2022-08-27T14:57:41.905Z,16.67
2022-08-27T15:12:44.158Z,16.63
2022-08-27T15:27:48.949Z,17.02
2022-08-27T15:42:59.773Z,14.82
2022-08-27T15:58:02.097Z,14.32
2022-08-27T16:13:04.334Z,14.23
2022-08-27T16:28:06.614Z,15.73
2022-08-27T16:43:08.917Z,17.33
2022-08-27T16:58:19.562Z,14.55
2022-08-27T17:28:30.391Z,20.42
2022-08-27T17:43:32.657Z,20.17
2022-08-27T17:58:34.893Z,19.52
2022-08-27T18:13:37.290Z,19.23
2022-08-27T18:28:39.542Z,21.67
2022-08-27T18:43:42.729Z,24.35
2022-08-27T18:58:45.471Z,24.67
2022-08-27T19:13:50.961Z,24.70
2022-08-27T19:28:53.350Z,25.80
2022-08-27T19:43:57.937Z,26.17
2022-08-27T19:59:13.426Z,27.33
2022-08-27T20:14:22.563Z,27.67
2022-08-27T20:29:32.512Z,44.88
2022-08-27T20:44:36.942Z,33.50
2022-08-27T20:59:57.699Z,26.85
2022-08-27T21:15:00.189Z,24.97
2022-08-27T21:30:02.596Z,28.48
2022-08-27T21:45:05.513Z,27.55
2022-08-27T22:00:26.311Z,25.08
2022-08-27T22:15:28.575Z,21.93
2022-08-27T22:30:30.911Z,28.02
2022-08-27T22:45:34.648Z,22.35
2022-08-27T23:00:37.450Z,32.95
2022-08-27T23:15:39.797Z,33.20
2022-08-27T23:30:42.222Z,27.50
2022-08-27T23:45:44.469Z,25.13
